createdAt,value
2018-09-28T03:05:20.463Z,6.50
2018-09-28T03:07:49.856Z,7.47
2018-09-28T03:10:18.796Z,8.13
2018-09-28T03:12:47.822Z,7.30
2018-09-28T03:15:16.732Z,6.30
2018-09-28T03:17:46.061Z,7.40
2018-09-28T03:20:15.018Z,7.37
2018-09-28T03:22:44.269Z,6.23
2018-09-28T03:25:13.176Z,7.90
2018-09-28T03:27:42.148Z,5.80
2018-09-28T03:30:11.141Z,6.90
2018-09-28T03:32:40.032Z,5.87
2018-09-28T03:35:08.898Z,7.73
2018-09-28T03:37:37.479Z,7.40
2018-09-28T03:40:06.237Z,6.87
2018-09-28T03:42:34.842Z,7.13
2018-09-28T03:45:03.500Z,7.87
2018-09-28T03:47:32.139Z,6.90
2018-09-28T03:50:01.258Z,7.33
2018-09-28T03:52:29.828Z,6.53
2018-09-28T03:54:58.459Z,7.13
2018-09-28T03:57:27.022Z,8.93
2018-09-28T03:59:55.561Z,8.13
2018-09-28T04:02:24.196Z,6.40
2018-09-28T04:04:52.779Z,7.70
2018-09-28T04:07:21.288Z,6.70
2018-09-28T04:09:49.907Z,7.93
2018-09-28T04:12:18.527Z,7.87
2018-09-28T04:14:47.177Z,9.27
2018-09-28T04:17:15.728Z,6.50
2018-09-28T04:19:44.310Z,7.80
2018-09-28T04:22:12.902Z,7.70
2018-09-28T04:24:41.581Z,8.20
2018-09-28T04:27:10.180Z,9.20
2018-09-28T04:29:38.764Z,7.53
2018-09-28T04:32:07.399Z,7.20
2018-09-28T04:34:36.050Z,6.70
2018-09-28T04:37:04.676Z,9.23
2018-09-28T04:39:33.341Z,7.83
2018-09-28T04:42:01.943Z,7.13
2018-09-28T04:44:30.533Z,8.80
2018-09-28T04:46:59.055Z,8.33
2018-09-28T04:49:27.655Z,8.03
2018-09-28T04:51:56.307Z,7.20
2018-09-28T04:54:24.916Z,7.67
2018-09-28T04:56:53.629Z,8.07
2018-09-28T05:16:02.008Z,7.70
2018-09-28T05:18:30.599Z,7.27
2018-09-28T05:20:59.163Z,8.57
2018-09-28T05:23:27.817Z,7.90
2018-09-28T05:25:56.387Z,6.70
2018-09-28T05:28:24.982Z,8.20
2018-09-28T05:30:53.971Z,7.40
2018-09-28T05:33:22.302Z,8.43
2018-09-28T05:35:50.876Z,7.60
2018-09-28T05:38:19.504Z,8.90
2018-09-28T05:40:48.144Z,10.40
2018-09-28T05:43:16.703Z,10.40
2018-09-28T05:45:45.277Z,9.50
2018-09-28T05:48:13.840Z,10.17
2018-09-28T05:50:42.422Z,8.40
2018-09-28T05:53:10.980Z,8.20
2018-09-28T05:55:39.545Z,8.17
2018-09-28T05:58:13.429Z,8.97
2018-09-28T06:00:47.431Z,7.50
2018-09-28T06:03:18.731Z,9.40
2018-09-28T06:05:52.621Z,8.67
2018-09-28T06:08:21.188Z,9.30
2018-09-28T06:10:49.906Z,8.83
2018-09-28T06:13:19.884Z,7.50
2018-09-28T06:15:48.779Z,9.53
2018-09-28T06:18:17.347Z,8.30
2018-09-28T06:20:46.140Z,9.40
2018-09-28T06:23:14.633Z,10.10
2018-09-28T06:25:43.183Z,9.80
2018-09-28T06:28:11.658Z,8.80
2018-09-28T06:30:40.210Z,9.10
2018-09-28T06:33:09.534Z,8.30
2018-09-28T06:35:39.609Z,8.40
2018-09-28T06:38:10.332Z,9.80
2018-09-28T06:40:40.710Z,8.20
2018-09-28T06:43:10.914Z,7.90
2018-09-28T06:45:40.403Z,9.10
2018-09-28T06:48:09.593Z,9.30
2018-09-28T06:50:38.875Z,8.40
2018-09-28T06:53:08.176Z,8.23
2018-09-28T06:55:38.031Z,8.23
2018-09-28T06:58:07.806Z,10.10
2018-09-28T07:00:37.247Z,9.73
2018-09-28T07:03:06.832Z,11.30
2018-09-28T07:05:35.678Z,11.57
2018-09-28T07:08:04.534Z,15.17
2018-09-28T07:10:33.356Z,18.77
2018-09-28T07:13:01.923Z,18.13
2018-09-28T07:15:31.366Z,18.83
2018-09-28T07:17:59.940Z,19.50
2018-09-28T07:20:28.573Z,20.50
2018-09-28T07:22:57.072Z,25.27
2018-09-28T07:25:25.790Z,23.90
2018-09-28T07:27:56.706Z,24.50
2018-09-28T07:30:25.263Z,22.10
2018-09-28T07:32:53.762Z,23.57
2018-09-28T07:35:22.382Z,23.57
2018-09-28T07:37:51.046Z,23.20
2018-09-28T07:40:19.910Z,24.03
2018-09-28T07:42:49.387Z,23.43
2018-09-28T07:45:18.126Z,21.77
2018-09-28T07:47:46.747Z,26.70
2018-09-28T07:50:15.426Z,24.40
2018-09-28T07:52:44.367Z,26.33
2018-09-28T07:55:12.844Z,26.60
2018-09-28T07:57:41.335Z,27.80
2018-09-28T08:00:09.875Z,24.40
2018-09-28T08:02:38.412Z,26.00
2018-09-28T08:05:06.981Z,24.80
2018-09-28T08:07:35.623Z,23.87
2018-09-28T08:10:04.634Z,28.17
2018-09-28T08:12:33.127Z,27.40
2018-09-28T08:15:01.685Z,25.77
2018-09-28T08:17:30.213Z,27.10
2018-09-28T08:23:03.197Z,24.00
2018-09-28T08:32:26.150Z,26.80
2018-09-28T09:06:25.022Z,28.50
2018-09-28T09:08:53.864Z,28.70
2018-09-28T09:11:28.390Z,26.43
2018-09-28T09:22:29.603Z,22.87
2018-09-28T09:24:58.138Z,21.67
2018-09-28T09:27:26.808Z,19.40
2018-09-28T09:29:55.372Z,21.20
2018-09-28T09:32:30.057Z,20.87
2018-09-28T09:34:58.579Z,21.27
2018-09-28T09:37:27.682Z,20.20
2018-09-28T09:39:56.857Z,21.20
2018-09-28T09:42:25.471Z,20.77
2018-09-28T09:44:54.193Z,22.70
2018-09-28T09:47:25.697Z,24.97
2018-09-28T09:49:54.399Z,25.93
2018-09-28T09:52:22.855Z,22.10
2018-09-28T09:54:51.484Z,24.13
2018-09-28T09:57:20.177Z,26.07
2018-09-28T09:59:48.679Z,27.43
2018-09-28T10:02:22.796Z,23.43
2018-09-28T10:04:51.846Z,25.70
2018-09-28T10:07:20.448Z,25.97
2018-09-28T10:09:49.003Z,25.37
2018-09-28T10:12:17.678Z,24.37
2018-09-28T10:14:46.758Z,22.50
2018-09-28T10:17:15.251Z,32.37
2018-09-28T10:19:44.821Z,29.07
2018-09-28T10:22:13.551Z,24.60
2018-09-28T10:24:42.062Z,22.50
2018-09-28T10:27:10.570Z,23.93
2018-09-28T10:29:39.141Z,22.70
2018-09-28T10:32:07.679Z,21.30
2018-09-28T10:34:36.380Z,22.83
2018-09-28T10:37:05.109Z,21.30
2018-09-28T10:39:37.457Z,18.93
2018-09-28T10:42:06.548Z,19.87
2018-09-28T10:44:35.836Z,19.13
2018-09-28T10:47:05.386Z,19.50
2018-09-28T10:49:34.461Z,19.07
2018-09-28T10:52:03.479Z,18.40
2018-09-28T10:54:32.267Z,17.60
2018-09-28T10:57:00.900Z,18.60
2018-09-28T10:59:29.805Z,15.70
2018-09-28T11:02:00.610Z,16.30
2018-09-28T11:04:29.528Z,16.00
2018-09-28T11:06:58.138Z,16.07
2018-09-28T11:09:26.752Z,13.93
2018-09-28T11:11:55.403Z,14.00
2018-09-28T11:14:24.825Z,13.93
2018-09-28T11:16:53.422Z,13.57
2018-09-28T11:19:22.207Z,14.43
2018-09-28T11:21:50.863Z,12.53
2018-09-28T11:24:19.414Z,13.07
2018-09-28T11:26:48.222Z,12.07
2018-09-28T11:29:16.677Z,11.47
2018-09-28T11:31:49.937Z,10.47
2018-09-28T11:34:18.654Z,11.53
2018-09-28T11:36:47.098Z,11.47
2018-09-28T11:39:15.549Z,9.80
2018-09-28T11:41:44.182Z,11.73
2018-09-28T11:44:12.673Z,12.00
2018-09-28T11:46:41.180Z,9.20
2018-09-28T11:49:09.711Z,9.30
2018-09-28T11:51:38.374Z,8.17
2018-09-28T11:54:07.000Z,7.07
2018-09-28T11:56:35.455Z,6.73
2018-09-28T11:59:03.930Z,7.27
2018-09-28T12:01:32.389Z,5.87
2018-09-28T12:04:00.882Z,5.13
2018-09-28T12:06:29.413Z,5.87
2018-09-28T12:08:58.026Z,6.10
2018-09-28T12:11:26.522Z,4.83
2018-09-28T12:13:54.979Z,4.13
2018-09-28T12:16:23.447Z,4.93
2018-09-28T12:18:51.977Z,5.43
2018-09-28T12:21:21.121Z,5.20
2018-09-28T12:23:50.343Z,5.40
2018-09-28T12:26:18.818Z,4.70
2018-09-28T12:28:47.356Z,4.10
2018-09-28T12:31:15.934Z,5.30
2018-09-28T12:33:44.429Z,4.70
2018-09-28T12:36:13.121Z,5.23
2018-09-28T12:38:41.717Z,4.10
2018-09-28T12:41:10.159Z,4.50
2018-09-28T12:43:38.638Z,4.23
2018-09-28T12:46:07.112Z,4.30
2018-09-28T12:48:35.693Z,5.33
2018-09-28T12:51:04.383Z,4.40
2018-09-28T12:53:33.080Z,4.53
2018-09-28T12:56:01.782Z,5.30
2018-09-28T12:58:30.278Z,6.33
2018-09-28T13:00:59.043Z,4.07
2018-09-28T13:03:27.516Z,4.40
2018-09-28T13:05:56.014Z,5.53
2018-09-28T13:08:24.564Z,4.40
2018-09-28T13:10:53.346Z,3.40
2018-09-28T13:13:21.994Z,4.57
2018-09-28T13:15:50.485Z,4.20
2018-09-28T13:18:19.548Z,4.00
2018-09-28T13:20:48.168Z,4.47
2018-09-28T13:23:17.806Z,4.00
2018-09-28T13:25:46.397Z,4.57
2018-09-28T13:28:15.055Z,3.83
2018-09-28T13:30:43.553Z,4.30
2018-09-28T13:33:12.323Z,4.17
2018-09-28T13:35:41.082Z,5.10
2018-09-28T13:38:09.715Z,4.77
2018-09-28T13:40:38.443Z,5.43
2018-09-28T13:43:06.925Z,5.10
2018-09-28T13:45:35.411Z,4.87
2018-09-28T13:48:04.137Z,5.60
2018-09-28T13:50:32.713Z,4.73
2018-09-28T13:53:01.408Z,5.07
2018-09-28T13:55:33.197Z,5.10
2018-09-28T13:58:02.670Z,5.40
2018-09-28T14:00:31.248Z,5.40
2018-09-28T14:02:59.782Z,4.90
2018-09-28T14:05:28.459Z,4.37
2018-09-28T14:07:57.091Z,5.60
2018-09-28T14:10:25.640Z,4.57
2018-09-28T14:12:54.260Z,5.27
2018-09-28T14:15:22.967Z,4.50
2018-09-28T14:17:52.027Z,4.60
2018-09-28T14:20:20.802Z,6.30
2018-09-28T14:22:49.521Z,5.10
2018-09-28T14:25:18.167Z,6.10
2018-09-28T14:27:46.892Z,5.10
2018-09-28T14:30:15.633Z,5.10
2018-09-28T14:32:44.398Z,5.47
2018-09-28T14:35:13.178Z,5.63
2018-09-28T14:37:41.767Z,5.20
2018-09-28T14:40:12.371Z,4.60
2018-09-28T14:42:41.353Z,5.07
2018-09-28T14:45:10.015Z,4.87
2018-09-28T14:47:38.805Z,5.13
2018-09-28T14:50:07.702Z,5.10
2018-09-28T14:52:36.667Z,5.80
2018-09-28T14:55:05.347Z,5.47
2018-09-28T14:57:33.810Z,5.57
2018-09-28T15:00:02.290Z,6.53
2018-09-28T15:02:31.175Z,4.37
2018-09-28T16:27:26.942Z,3.60
2018-09-28T16:29:55.875Z,5.07
2018-09-28T16:32:24.767Z,4.13
2018-09-28T16:34:53.690Z,3.87
2018-09-28T16:37:22.660Z,3.80
2018-09-28T16:39:56.413Z,4.80
2018-09-28T16:42:25.466Z,4.10
2018-09-28T16:44:54.882Z,4.50
2018-09-28T16:47:23.773Z,4.23
2018-09-28T16:49:52.650Z,3.60
2018-09-28T16:52:21.570Z,4.20
2018-09-28T16:54:50.535Z,4.87
2018-09-28T16:57:19.592Z,4.33
2018-09-28T16:59:50.645Z,5.87
2018-09-28T17:02:19.709Z,4.87
2018-09-28T17:04:48.638Z,4.13
2018-09-28T17:07:17.667Z,4.03
2018-09-28T17:12:24.748Z,5.50
2018-09-28T17:14:54.353Z,4.23
2018-09-28T17:17:23.969Z,5.47
2018-09-28T17:19:52.916Z,6.90
2018-09-28T17:22:21.926Z,6.53
2018-09-28T17:24:50.942Z,7.50
2018-09-28T17:27:19.945Z,8.73
2018-09-28T17:29:49.756Z,8.67
2018-09-28T17:32:18.704Z,9.57
2018-09-28T17:34:47.969Z,9.73
2018-09-28T17:37:17.143Z,10.73
2018-09-28T17:39:46.407Z,11.13
2018-09-28T17:42:15.334Z,13.77
2018-09-28T17:44:44.196Z,10.73
2018-09-28T17:47:13.124Z,11.77
2018-09-28T17:49:42.071Z,12.70
2018-09-28T17:58:19.649Z,9.73
2018-09-28T20:57:21.555Z,2.03
2018-09-28T20:59:50.700Z,2.20
2018-09-28T21:02:25.681Z,2.10
2018-09-28T21:08:09.962Z,1.70
2018-09-28T21:10:39.271Z,1.93
2018-09-28T21:13:10.310Z,2.17
2018-09-28T21:15:41.101Z,2.20
2018-09-28T21:18:11.689Z,2.23
2018-09-28T21:20:41.078Z,2.07
2018-09-28T21:23:09.822Z,1.93
2018-09-28T21:25:38.624Z,2.20
2018-09-28T21:28:07.235Z,2.87
2018-09-28T21:30:36.060Z,2.37
2018-09-28T21:33:05.168Z,2.33
2018-09-28T21:35:36.033Z,2.00
2018-09-28T21:38:04.974Z,2.33
2018-09-28T21:40:34.234Z,3.53
2018-09-28T21:43:02.556Z,2.53
2018-09-28T21:45:31.852Z,2.30
2018-09-28T21:48:00.112Z,3.50
2018-09-28T21:50:30.534Z,2.80
2018-09-28T21:53:00.710Z,2.23
2018-09-28T21:55:29.691Z,2.10
2018-09-28T21:57:58.527Z,1.80
2018-09-28T22:00:27.949Z,1.90
2018-09-28T22:02:57.066Z,2.03
2018-09-28T22:05:25.654Z,1.60
2018-09-28T22:07:54.689Z,1.70
2018-09-28T22:10:23.766Z,1.70
2018-09-28T22:12:52.533Z,1.83
2018-09-28T22:15:21.181Z,2.50
2018-09-28T22:17:50.313Z,2.33
2018-09-28T22:20:18.898Z,2.10
2018-09-28T22:22:47.521Z,2.43
2018-09-28T22:25:16.259Z,2.40
2018-09-28T22:27:44.650Z,2.40
2018-09-28T22:30:13.299Z,2.17
2018-09-28T22:32:42.719Z,2.70
2018-09-28T22:35:10.954Z,2.57
2018-09-28T22:37:39.246Z,3.07
2018-09-28T22:40:07.486Z,2.93
2018-09-28T22:42:35.750Z,3.30
2018-09-28T22:45:06.744Z,2.90
2018-09-28T22:47:36.792Z,2.63
2018-09-28T22:50:05.166Z,2.90
2018-09-28T22:52:33.375Z,2.60
2018-09-28T22:55:01.576Z,2.80
2018-09-28T22:57:29.780Z,3.53
2018-09-28T22:59:58.027Z,3.30
2018-09-28T23:02:26.254Z,3.43
2018-09-28T23:04:54.428Z,3.00
2018-09-28T23:07:22.654Z,3.57
2018-09-28T23:09:50.949Z,2.73
2018-09-28T23:12:19.230Z,3.20
2018-09-28T23:14:47.435Z,2.50
2018-09-28T23:17:15.711Z,2.93
2018-09-28T23:19:43.962Z,2.73
2018-09-28T23:22:12.239Z,2.80
2018-09-28T23:24:40.510Z,4.00
2018-09-28T23:27:09.223Z,2.60
2018-09-28T23:29:37.833Z,2.43
2018-09-28T23:32:06.771Z,2.50
2018-09-28T23:34:35.319Z,3.60
2018-09-28T23:37:03.955Z,3.90
2018-09-28T23:39:32.622Z,3.27
2018-09-28T23:42:01.162Z,3.83
2018-09-28T23:44:29.791Z,3.03
2018-09-28T23:46:58.359Z,2.80
2018-09-28T23:49:26.904Z,2.90
2018-09-28T23:51:55.227Z,2.60
2018-09-28T23:54:23.826Z,3.43
2018-09-28T23:56:52.097Z,2.43
2018-09-28T23:59:21.006Z,2.60
